Time;durP1;ratioP1;P1;durP2;ratioP2;P2;SDS_P1;SDS_P2;PMS_P1;PMS_P2;Temp;Humidity;BMP_temperature;BMP_pressure;BME280_temperature;BME280_humidity;BME280_pressure;Samples;Min_cycle;Max_cycle;Signal;HPM_P1;HPM_P2
2021/08/04 00:00:27;;;;;;;10.38;5.15;;;;;;;17.65;66.30;100819.44;5097329;28;20048;-65
2021/08/04 00:02:55;;;;;;;7.97;5.18;;;;;;;17.72;66.14;100827.97;5096829;28;20047;-66
2021/08/04 00:05:22;;;;;;;8.90;4.90;;;;;;;17.83;65.66;100819.91;5061638;28;20052;-65
2021/08/04 00:07:50;;;;;;;8.65;5.35;;;;;;;17.66;66.46;100825.81;5090700;28;20044;-65
2021/08/04 00:10:18;;;;;;;11.13;4.95;;;;;;;17.45;67.38;100828.00;5057151;28;20048;-65
2021/08/04 00:12:45;;;;;;;33.60;23.38;;;;;;;17.53;67.39;100819.50;5076057;28;20045;-64
2021/08/04 00:15:15;;;;;;;35.28;22.85;;;;;;;17.52;67.45;100834.59;5057962;28;20052;-66
2021/08/04 00:17:43;;;;;;;50.70;28.77;;;;;;;17.59;67.26;100834.78;5075707;28;20044;-65
2021/08/04 00:20:11;;;;;;;55.05;31.88;;;;;;;17.79;66.59;100825.38;5075701;28;20052;-65
2021/08/04 00:22:38;;;;;;;28.63;18.52;;;;;;;17.76;67.00;100828.06;5075685;28;20492;-64
2021/08/04 00:25:07;;;;;;;21.75;13.85;;;;;;;17.62;67.16;100825.72;5075654;28;20543;-65
2021/08/04 00:27:35;;;;;;;35.38;20.92;;;;;;;17.37;68.29;100824.22;5075465;28;20049;-65
2021/08/04 00:30:04;;;;;;;13.35;6.85;;;;;;;17.22;68.76;100819.44;5075301;28;20055;-64
2021/08/04 00:32:31;;;;;;;39.17;20.60;;;;;;;17.13;69.14;100824.34;5037436;28;20056;-64
2021/08/04 00:34:59;;;;;;;36.92;24.25;;;;;;;17.17;68.91;100824.44;5055731;28;20056;-65
2021/08/04 00:37:27;;;;;;;19.35;12.15;;;;;;;16.99;69.52;100831.47;5037626;28;20052;-65
2021/08/04 00:39:55;;;;;;;17.73;9.15;;;;;;;17.00;69.22;100822.75;5055369;28;20059;-65
2021/08/04 00:42:22;;;;;;;9.55;5.65;;;;;;;16.91;69.16;100816.53;5037412;28;20496;-66
2021/08/04 00:44:50;;;;;;;9.55;4.82;;;;;;;16.92;69.08;100820.94;5055191;28;20072;-65
2021/08/04 00:47:17;;;;;;;8.77;5.05;;;;;;;17.07;68.77;100816.59;5037276;28;20052;-65
2021/08/04 00:49:45;;;;;;;7.70;4.68;;;;;;;17.16;68.10;100822.81;5041586;28;20460;-65
2021/08/04 00:52:13;;;;;;;7.88;4.78;;;;;;;17.00;68.44;100803.28;5020999;28;20049;-66
2021/08/04 00:54:40;;;;;;;8.43;4.80;;;;;;;17.16;67.90;100808.88;5036821;28;20072;-64
2021/08/04 00:57:08;;;;;;;9.27;5.22;;;;;;;17.11;67.89;100809.97;5064834;28;20040;-64
2021/08/04 00:59:35;;;;;;;8.25;5.13;;;;;;;17.12;67.99;100813.56;5077102;28;20056;-64
2021/08/04 01:02:12;;;;;;;8.70;5.22;;;;;;;17.14;67.88;100809.25;5077251;28;20048;-64
2021/08/04 01:04:58;;;;;;;7.95;4.75;;;;;;;17.32;67.15;100802.19;5077082;28;20051;-64
2021/08/04 01:07:29;;;;;;;10.55;5.40;;;;;;;17.00;68.00;100803.28;5060464;28;20071;-65
2021/08/04 01:10:17;;;;;;;20.17;10.65;;;;;;;17.34;67.09;100802.66;5074469;28;20052;-65
2021/08/04 01:12:59;;;;;;;33.80;20.75;;;;;;;17.30;67.16;100798.97;5056665;28;20052;-64
2021/08/04 01:15:30;;;;;;;13.68;8.50;;;;;;;17.17;67.66;100802.16;5056893;28;20056;-63
2021/08/04 01:17:58;;;;;;;15.73;9.52;;;;;;;17.07;67.86;100794.34;5056576;28;20051;-65
2021/08/04 01:20:27;;;;;;;11.93;7.60;;;;;;;16.80;68.77;100791.19;5074575;28;20532;-64
2021/08/04 01:23:32;;;;;;;12.23;7.57;;;;;;;16.96;68.38;100796.00;5038408;28;20052;-65
2021/08/04 01:26:07;;;;;;;11.95;7.15;;;;;;;16.67;69.15;100792.38;5055966;28;20048;-64
2021/08/04 01:28:45;;;;;;;15.02;9.63;;;;;;;16.61;69.46;100793.81;5056286;28;20661;-65
2021/08/04 01:31:16;;;;;;;11.77;6.55;;;;;;;16.60;69.20;100797.72;5040058;28;20052;-64
2021/08/04 01:33:46;;;;;;;20.90;13.27;;;;;;;16.61;69.31;100796.59;5056152;28;20052;-66
2021/08/04 01:36:13;;;;;;;;;;;;;;;16.50;69.60;100798.22;5056776;28;20071;-65
2021/08/04 01:38:41;;;;;;;9.95;5.82;;;;;;;16.58;69.28;100791.72;5056443;28;19921;-64
2021/08/04 01:41:10;;;;;;;7.72;5.15;;;;;;;16.80;68.61;100785.63;5039910;28;20499;-66
2021/08/04 01:43:39;;;;;;;8.10;4.97;;;;;;;17.03;67.76;100785.88;5039951;28;20048;-65
2021/08/04 01:46:07;;;;;;;11.77;5.43;;;;;;;16.91;68.03;100782.34;5037744;28;20131;-64
2021/08/04 01:48:37;;;;;;;8.77;5.00;;;;;;;16.92;68.18;100781.16;5020045;28;20068;-64
2021/08/04 01:51:08;;;;;;;13.10;4.95;;;;;;;16.90;68.58;100781.53;5036384;28;20049;-64
2021/08/04 01:53:36;;;;;;;9.75;4.85;;;;;;;16.77;68.78;100785.53;5020623;28;20079;-65
2021/08/04 01:56:03;;;;;;;10.77;4.72;;;;;;;16.84;68.41;100777.38;5045782;28;20051;-65
2021/08/04 01:58:31;;;;;;;10.70;4.82;;;;;;;16.84;68.49;100772.63;5076215;28;20052;-64
2021/08/04 02:00:59;;;;;;;13.10;5.05;;;;;;;16.59;69.01;100771.09;5059889;28;20047;-66
2021/08/04 02:03:26;;;;;;;8.52;5.20;;;;;;;16.63;69.16;100769.22;5075887;28;20411;-64
2021/08/04 02:05:54;;;;;;;8.70;4.57;;;;;;;16.77;68.38;100769.63;5059125;28;20062;-65
2021/08/04 02:08:30;;;;;;;9.30;4.80;;;;;;;16.81;67.95;100764.97;5076268;28;20488;-66
2021/08/04 02:11:06;;;;;;;7.20;4.80;;;;;;;16.68;68.59;100765.38;5073624;28;20060;-64
2021/08/04 02:13:48;;;;;;;9.20;5.10;;;;;;;16.76;68.27;100762.47;5039435;28;20048;-65
2021/08/04 02:16:34;;;;;;;10.52;5.13;;;;;;;16.54;69.14;100764.97;5073493;28;20062;-64
2021/08/04 02:19:12;;;;;;;8.65;4.90;;;;;;;16.47;69.42;100764.75;5073812;28;20079;-65
2021/08/04 02:21:42;;;;;;;7.10;4.80;;;;;;;16.41;69.74;100774.44;5056626;28;20056;-64
2021/08/04 02:24:12;;;;;;;7.68;4.90;;;;;;;16.57;69.16;100770.63;5056075;28;20056;-65
2021/08/04 02:26:40;;;;;;;8.93;4.85;;;;;;;16.74;68.75;100764.78;5039081;28;20055;-64
2021/08/04 02:29:08;;;;;;;8.30;4.90;;;;;;;16.56;69.03;100765.44;5054211;28;20060;-64
2021/08/04 02:31:35;;;;;;;10.35;5.05;;;;;;;16.69;68.96;100756.69;5029525;28;20068;-65
2021/08/04 02:34:03;;;;;;;7.38;4.63;;;;;;;16.71;68.75;100765.50;5021949;28;20049;-67
2021/08/04 02:36:31;;;;;;;8.57;5.35;;;;;;;16.48;69.83;100750.50;5039651;28;20060;-64
2021/08/04 02:39:01;;;;;;;9.63;5.40;;;;;;;16.64;69.28;100748.59;5057893;28;20045;-67
2021/08/04 02:41:30;;;;;;;7.03;4.78;;;;;;;16.61;69.67;100740.16;5040711;28;20452;-65
2021/08/04 02:44:00;;;;;;;8.90;5.10;;;;;;;16.76;69.28;100744.94;5059229;28;20063;-64
2021/08/04 02:46:29;;;;;;;8.38;5.57;;;;;;;16.57;70.09;100745.59;5027181;28;20693;-64
2021/08/04 02:48:57;;;;;;;8.13;5.78;;;;;;;16.56;70.45;100745.97;5043830;28;20051;-65
2021/08/04 02:51:26;;;;;;;8.85;5.35;;;;;;;16.73;69.91;100746.47;5059947;28;20053;-66
2021/08/04 02:53:58;;;;;;;12.38;5.95;;;;;;;16.78;69.65;100745.41;5050924;28;20048;-65
2021/08/04 02:56:26;;;;;;;8.27;5.57;;;;;;;16.43;70.73;100750.72;5073138;28;20068;-66
2021/08/04 02:58:53;;;;;;;11.57;5.38;;;;;;;16.44;70.78;100743.19;5097730;28;20048;-66
2021/08/04 03:01:21;;;;;;;9.15;5.63;;;;;;;16.58;70.32;100743.66;5097792;28;20055;-65
2021/08/04 03:03:48;;;;;;;11.15;5.68;;;;;;;16.35;70.85;100745.28;5069087;28;20053;-65
2021/08/04 03:06:16;;;;;;;9.10;5.63;;;;;;;16.25;71.03;100740.22;5059009;28;20052;-65
2021/08/04 03:08:43;;;;;;;9.18;5.43;;;;;;;16.15;71.39;100743.47;5077142;28;20050;-63
2021/08/04 03:11:10;;;;;;;8.63;5.57;;;;;;;16.19;71.37;100745.22;5076761;28;20412;-63
2021/08/04 03:13:38;;;;;;;9.82;5.47;;;;;;;16.23;71.35;100745.31;5076983;28;20064;-64
2021/08/04 03:16:05;;;;;;;8.80;5.63;;;;;;;16.26;71.33;100752.94;5042097;28;20071;-64
2021/08/04 03:18:32;;;;;;;9.35;5.85;;;;;;;16.22;71.25;100750.06;5076688;28;20044;-64
2021/08/04 03:20:59;;;;;;;10.95;5.65;;;;;;;16.25;70.90;100754.13;5076899;28;20059;-65
2021/08/04 03:23:27;;;;;;;10.02;5.75;;;;;;;16.35;70.40;100751.63;5076958;28;20048;-65
2021/08/04 03:25:54;;;;;;;8.90;5.53;;;;;;;16.17;70.88;100749.50;5074981;28;20048;-65
2021/08/04 03:28:21;;;;;;;10.70;5.57;;;;;;;16.13;70.98;100740.22;5056859;28;20040;-65
2021/08/04 03:30:48;;;;;;;9.55;5.32;;;;;;;16.02;71.39;100737.13;5056914;28;20124;-64
2021/08/04 03:33:15;;;;;;;14.32;5.55;;;;;;;16.00;71.66;100733.06;5056353;28;20057;-65
2021/08/04 03:35:43;;;;;;;9.63;5.47;;;;;;;15.81;72.07;100721.75;5056568;28;20076;-65
2021/08/04 03:38:10;;;;;;;10.98;5.53;;;;;;;15.84;72.17;100718.28;5056567;28;20068;-65
2021/08/04 03:40:37;;;;;;;12.70;5.80;;;;;;;15.78;72.27;100723.25;5056260;28;20185;-65
2021/08/04 03:43:04;;;;;;;13.93;5.70;;;;;;;15.80;72.38;100718.16;5056642;28;20064;-64
2021/08/04 03:45:32;;;;;;;10.85;5.45;;;;;;;15.95;71.91;100722.22;5055131;28;20045;-64
2021/08/04 03:47:59;;;;;;;8.93;4.82;;;;;;;15.99;71.61;100734.25;5056447;28;20444;-64
2021/08/04 03:50:26;;;;;;;10.32;5.07;;;;;;;15.93;71.97;100733.66;5074495;28;20056;-64
2021/08/04 03:52:53;;;;;;;10.30;5.45;;;;;;;15.76;72.60;100750.56;5077214;28;20075;-64
2021/08/04 03:55:22;;;;;;;8.93;5.63;;;;;;;15.61;72.98;100740.97;5067790;28;20056;-65
2021/08/04 03:57:49;;;;;;;10.77;5.68;;;;;;;15.43;73.98;100742.31;5095540;28;20514;-65
2021/08/04 04:00:16;;;;;;;12.60;5.85;;;;;;;15.55;73.82;100747.88;5096653;28;20051;-64
2021/08/04 04:02:43;;;;;;;11.88;5.75;;;;;;;15.63;73.57;100748.94;5096292;28;20058;-65
2021/08/04 04:05:11;;;;;;;8.00;5.35;;;;;;;15.79;73.11;100755.44;5096471;28;20048;-64
2021/08/04 04:07:38;;;;;;;9.73;5.68;;;;;;;15.68;73.22;100755.09;5096158;28;20052;-65
2021/08/04 04:10:07;;;;;;;9.63;4.95;;;;;;;15.79;72.77;100749.88;5096105;28;20464;-65
2021/08/04 04:12:34;;;;;;;8.48;5.68;;;;;;;15.79;72.41;100756.22;5067243;28;20064;-65
2021/08/04 04:15:03;;;;;;;9.70;5.30;;;;;;;15.88;72.37;100750.56;5075323;28;20059;-65
2021/08/04 04:17:31;;;;;;;11.82;5.50;;;;;;;15.76;72.86;100754.16;5075678;28;20380;-65
2021/08/04 04:19:58;;;;;;;8.30;4.90;;;;;;;15.70;72.90;100750.00;5075855;28;20055;-65
2021/08/04 04:22:26;;;;;;;9.45;5.40;;;;;;;15.78;72.55;100748.25;5057897;28;20053;-64
2021/08/04 04:24:53;;;;;;;9.85;5.32;;;;;;;15.72;72.81;100744.09;5075811;28;20052;-65
2021/08/04 04:27:20;;;;;;;8.77;5.55;;;;;;;15.73;73.00;100740.97;5075495;28;20048;-65
2021/08/04 04:29:47;;;;;;;9.13;5.45;;;;;;;15.70;72.74;100735.28;5075826;28;20048;-65
2021/08/04 04:32:15;;;;;;;8.52;6.07;;;;;;;16.02;71.70;100728.00;5075359;28;20071;-64
2021/08/04 04:34:42;;;;;;;10.25;5.25;;;;;;;16.04;71.29;100725.66;5055794;28;20049;-64
2021/08/04 04:37:09;;;;;;;13.05;5.50;;;;;;;15.74;72.22;100723.13;5055725;28;20053;-65
2021/08/04 04:39:36;;;;;;;8.88;5.13;;;;;;;15.65;72.82;100736.34;5055404;28;20041;-65
2021/08/04 04:42:04;;;;;;;9.82;5.20;;;;;;;16.00;71.54;100721.97;5055495;28;20049;-65
2021/08/04 04:44:31;;;;;;;9.63;4.85;;;;;;;16.13;71.15;100727.16;5055483;28;20685;-65
2021/08/04 04:46:58;;;;;;;10.23;5.50;;;;;;;16.15;71.09;100730.38;5021207;28;20052;-65
2021/08/04 04:49:26;;;;;;;8.50;5.30;;;;;;;15.96;71.40;100738.53;5055356;28;20060;-65
2021/08/04 04:51:53;;;;;;;9.35;5.10;;;;;;;16.05;71.38;100733.66;5055382;28;20044;-65
2021/08/04 04:54:20;;;;;;;9.55;5.28;;;;;;;16.00;71.24;100728.34;5037736;28;20049;-67
2021/08/04 04:56:47;;;;;;;10.38;5.53;;;;;;;16.09;70.96;100731.00;5073145;28;20510;-65
2021/08/04 04:59:14;;;;;;;7.05;4.68;;;;;;;16.33;70.19;100728.97;5074957;28;20045;-64
2021/08/04 05:01:42;;;;;;;9.10;5.53;;;;;;;16.13;70.79;100737.44;5064709;28;20520;-65
2021/08/04 05:04:09;;;;;;;11.40;5.15;;;;;;;16.24;70.52;100735.81;5054868;28;20064;-66
2021/08/04 05:06:37;;;;;;;10.20;5.40;;;;;;;16.21;70.61;100742.06;5054635;28;20045;-66
2021/08/04 05:09:04;;;;;;;10.25;5.18;;;;;;;16.23;70.42;100748.09;5054962;28;20456;-65
2021/08/04 05:11:31;;;;;;;10.25;5.35;;;;;;;16.33;70.26;100753.16;5054959;28;20052;-65
2021/08/04 05:13:58;;;;;;;8.10;5.32;;;;;;;16.31;70.33;100753.53;5037344;28;20053;-65
2021/08/04 05:16:26;;;;;;;9.00;5.40;;;;;;;16.34;70.44;100747.25;5054876;28;20067;-65
2021/08/04 05:18:53;;;;;;;12.88;5.18;;;;;;;16.47;70.00;100756.41;5054609;28;20049;-64
2021/08/04 05:21:22;;;;;;;10.15;5.13;;;;;;;16.49;69.67;100748.53;5054640;28;20381;-64
2021/08/04 05:23:49;;;;;;;10.27;5.15;;;;;;;16.47;69.46;100750.84;5054564;28;20550;-64
2021/08/04 05:26:16;;;;;;;14.30;5.40;;;;;;;16.55;68.87;100739.59;5054263;28;20067;-65
2021/08/04 05:28:43;;;;;;;9.50;5.32;;;;;;;16.49;69.18;100749.31;5054487;28;20045;-65
2021/08/04 05:31:10;;;;;;;8.32;5.53;;;;;;;16.30;69.83;100751.88;5054628;28;20056;-65
2021/08/04 05:33:38;;;;;;;11.15;5.28;;;;;;;16.38;69.63;100756.53;5054458;28;20049;-64
2021/08/04 05:36:05;;;;;;;10.13;5.03;;;;;;;16.26;69.81;100751.00;5054170;28;20056;-65
2021/08/04 05:38:32;;;;;;;10.93;5.18;;;;;;;16.51;69.31;100754.56;5054313;28;20056;-67
2021/08/04 05:41:00;;;;;;;11.20;5.38;;;;;;;16.45;69.47;100745.63;5054190;28;20072;-65
2021/08/04 05:43:27;;;;;;;11.75;5.40;;;;;;;16.55;68.89;100744.31;5054464;28;20049;-64
2021/08/04 05:45:54;;;;;;;11.48;5.97;;;;;;;16.51;68.96;100744.22;5054268;28;20048;-65
2021/08/04 05:48:21;;;;;;;11.73;5.43;;;;;;;16.61;68.62;100742.94;5036266;28;20053;-64
2021/08/04 05:50:48;;;;;;;12.43;5.70;;;;;;;16.48;68.90;100753.28;5054204;28;20052;-65
2021/08/04 05:53:16;;;;;;;13.73;5.43;;;;;;;16.46;68.96;100757.53;5054556;28;20056;-65
2021/08/04 05:55:43;;;;;;;9.85;5.60;;;;;;;16.67;68.58;100750.66;5058959;28;20166;-65
2021/08/04 05:58:10;;;;;;;10.25;4.95;;;;;;;16.66;68.03;100765.75;5087393;28;20416;-65
2021/08/04 06:00:37;;;;;;;9.05;4.65;;;;;;;16.72;67.61;100769.88;5055894;28;20048;-65
2021/08/04 06:03:05;;;;;;;10.05;5.28;;;;;;;16.52;67.73;100767.28;5074355;28;20055;-66
2021/08/04 06:05:32;;;;;;;11.27;5.50;;;;;;;16.61;67.48;100765.19;5070489;28;20063;-66
2021/08/04 06:07:59;;;;;;;9.75;5.22;;;;;;;16.63;67.20;100766.44;5072839;28;20053;-64
2021/08/04 06:10:27;;;;;;;8.30;4.95;;;;;;;16.71;66.93;100765.50;5073656;28;20052;-64
2021/08/04 06:12:54;;;;;;;10.77;4.68;;;;;;;16.97;66.61;100759.47;5074600;28;20072;-65
2021/08/04 06:15:41;;;;;;;9.32;5.38;;;;;;;17.00;65.99;100752.38;5069898;28;20048;-65
2021/08/04 06:18:08;;;;;;;12.93;5.13;;;;;;;16.94;65.88;100762.97;5036880;28;20049;-65
2021/08/04 06:20:35;;;;;;;9.23;4.97;;;;;;;16.85;66.35;100753.94;5056276;28;20048;-65
2021/08/04 06:23:03;;;;;;;9.75;5.35;;;;;;;17.03;66.18;100746.91;5064933;28;20078;-63
2021/08/04 06:25:30;;;;;;;8.70;5.50;;;;;;;17.24;65.49;100753.06;5053394;28;20082;-62
2021/08/04 06:27:57;;;;;;;10.02;5.40;;;;;;;17.43;65.12;100750.41;5073556;28;20053;-64
2021/08/04 06:30:25;;;;;;;13.82;4.95;;;;;;;17.78;64.05;100745.72;5065437;28;20063;-63
2021/08/04 06:32:52;;;;;;;8.77;5.00;;;;;;;18.20;63.86;100745.91;5056450;28;20049;-65
2021/08/04 06:35:19;;;;;;;8.80;4.70;;;;;;;18.18;63.15;100742.72;5055107;28;20491;-64
2021/08/04 06:37:46;;;;;;;9.80;5.00;;;;;;;18.34;63.02;100751.03;5069431;28;20060;-64
2021/08/04 06:40:14;;;;;;;17.55;5.00;;;;;;;18.46;61.81;100748.13;5041543;28;20036;-64
2021/08/04 06:42:41;;;;;;;7.20;4.47;;;;;;;18.44;60.79;100753.28;5070849;28;20053;-64
2021/08/04 06:45:10;;;;;;;9.77;4.72;;;;;;;18.39;60.37;100747.97;5068058;28;20515;-63
2021/08/04 06:47:38;;;;;;;8.68;5.15;;;;;;;18.45;60.52;100752.09;5054553;28;20057;-64
2021/08/04 06:50:07;;;;;;;11.80;4.45;;;;;;;18.45;60.24;100749.28;5057632;28;20037;-64
2021/08/04 06:52:34;;;;;;;8.65;4.53;;;;;;;18.93;59.23;100751.53;5071021;28;20057;-64
2021/08/04 06:55:02;;;;;;;8.77;4.80;;;;;;;18.75;58.95;100744.78;5053335;28;20053;-63
2021/08/04 06:57:29;;;;;;;9.25;4.72;;;;;;;18.49;59.24;100750.19;5055184;28;20516;-64
2021/08/04 06:59:56;;;;;;;12.43;5.00;;;;;;;18.57;59.35;100743.59;5041522;28;20063;-64
2021/08/04 07:02:25;;;;;;;9.73;4.88;;;;;;;18.59;59.05;100744.84;5053155;28;20155;-65
2021/08/04 07:04:52;;;;;;;9.60;4.93;;;;;;;18.82;59.35;100751.31;5345584;22;20063;-67
2021/08/04 07:07:20;;;;;;;10.95;4.78;;;;;;;18.81;58.70;100758.06;5055841;28;20380;-67
2021/08/04 07:09:47;;;;;;;13.30;5.18;;;;;;;18.99;58.02;100762.03;5062942;28;20052;-67
2021/08/04 07:12:16;;;;;;;10.15;5.18;;;;;;;18.81;57.92;100762.84;5055403;28;20048;-67
2021/08/04 07:14:43;;;;;;;13.50;5.70;;;;;;;18.91;58.41;100763.06;5071503;28;20154;-67
2021/08/04 07:17:10;;;;;;;10.68;5.30;;;;;;;19.13;58.29;100763.47;5072859;28;20048;-67
2021/08/04 07:19:37;;;;;;;9.07;5.38;;;;;;;18.83;58.72;100763.25;5072686;28;20052;-66
2021/08/04 07:22:05;;;;;;;9.82;5.40;;;;;;;19.07;58.61;100763.75;5066237;28;20056;-69
2021/08/04 07:24:36;;;;;;;12.68;4.75;;;;;;;19.35;57.66;100763.56;5068541;28;20067;-69
2021/08/04 07:27:04;;;;;;;10.18;5.57;;;;;;;19.66;57.56;100756.91;5056431;28;20076;-67
2021/08/04 07:29:31;;;;;;;9.88;6.05;;;;;;;19.60;56.52;100748.03;5056291;28;20055;-68
2021/08/04 07:31:58;;;;;;;14.23;5.88;;;;;;;19.46;56.86;100753.34;5056058;28;20048;-68
2021/08/04 07:34:26;;;;;;;15.27;5.85;;;;;;;19.28;56.67;100749.44;5057776;28;20056;-67
2021/08/04 07:36:53;;;;;;;10.65;5.97;;;;;;;19.23;57.29;100749.69;5074166;28;20040;-67
2021/08/04 07:39:21;;;;;;;12.10;6.35;;;;;;;19.49;56.88;100746.22;5065970;28;20048;-67
2021/08/04 07:41:48;;;;;;;14.68;5.47;;;;;;;19.67;56.15;100741.72;5066461;28;20422;-68
2021/08/04 07:44:16;;;;;;;9.60;5.90;;;;;;;19.74;56.07;100741.84;5070618;28;20044;-68
2021/08/04 07:46:54;;;;;;;12.32;5.40;;;;;;;19.68;56.16;100748.97;5056033;28;20056;-68
2021/08/04 07:49:22;;;;;;;10.10;5.47;;;;;;;19.78;56.42;100746.34;5055373;28;20053;-68
2021/08/04 07:51:49;;;;;;;12.75;6.20;;;;;;;20.01;55.67;100752.69;5073838;28;20044;-68
2021/08/04 07:54:17;;;;;;;12.40;5.80;;;;;;;20.07;54.69;100762.38;5076395;28;20059;-69
2021/08/04 07:56:44;;;;;;;13.40;6.32;;;;;;;20.09;54.55;100750.81;5072682;28;20403;-68
2021/08/04 07:59:11;;;;;;;8.77;5.78;;;;;;;20.28;54.02;100756.31;5073301;28;20068;-68
2021/08/04 08:01:39;;;;;;;8.98;4.95;;;;;;;20.47;53.56;100747.00;5072024;28;20055;-69
2021/08/04 08:04:07;;;;;;;12.15;5.38;;;;;;;20.60;53.65;100748.38;5064795;28;20044;-68
2021/08/04 08:06:34;;;;;;;9.50;5.47;;;;;;;20.41;53.54;100757.72;5072785;28;20506;-68
2021/08/04 08:09:02;;;;;;;10.45;5.47;;;;;;;20.52;53.49;100752.28;5073987;28;20426;-69
2021/08/04 08:11:29;;;;;;;9.00;5.45;;;;;;;20.62;52.71;100748.81;5075142;28;20048;-69
2021/08/04 08:13:56;;;;;;;13.30;5.70;;;;;;;20.36;53.16;100748.84;5068734;28;20067;-69
2021/08/04 08:16:24;;;;;;;8.68;5.80;;;;;;;20.51;52.71;100745.03;5074811;28;20053;-69
2021/08/04 08:18:55;;;;;;;9.75;5.28;;;;;;;20.58;52.08;100740.34;5074920;28;20044;-69
2021/08/04 08:21:23;;;;;;;11.63;5.88;;;;;;;20.82;52.55;100736.25;5074452;28;20059;-69
2021/08/04 08:23:51;;;;;;;10.70;5.20;;;;;;;21.01;51.86;100736.91;5074706;28;20052;-68
2021/08/04 08:26:21;;;;;;;7.72;4.72;;;;;;;20.96;51.25;100734.44;5074904;28;20041;-69
2021/08/04 08:28:49;;;;;;;12.52;5.07;;;;;;;20.56;51.67;100742.72;5074455;28;20055;-68
2021/08/04 08:31:16;;;;;;;14.75;5.95;;;;;;;20.63;51.87;100740.03;5073917;28;20049;-69
2021/08/04 08:33:44;;;;;;;9.45;5.03;;;;;;;20.67;51.18;100740.88;5074396;28;20052;-68
2021/08/04 08:36:11;;;;;;;11.02;5.35;;;;;;;20.49;51.53;100736.22;5074339;28;20053;-69
2021/08/04 08:38:38;;;;;;;11.98;5.35;;;;;;;20.42;51.63;100738.91;5074634;28;20053;-68
2021/08/04 08:41:07;;;;;;;12.15;4.57;;;;;;;20.61;52.07;100741.56;5074763;28;20056;-68
2021/08/04 08:43:35;;;;;;;10.93;5.53;;;;;;;20.82;51.29;100744.66;5072629;28;20403;-68
2021/08/04 08:46:03;;;;;;;16.88;5.35;;;;;;;20.71;50.29;100743.72;5072663;28;20052;-68
2021/08/04 08:48:31;;;;;;;11.93;4.35;;;;;;;20.72;50.41;100745.31;5074576;28;20053;-68
2021/08/04 08:50:59;;;;;;;8.73;4.30;;;;;;;20.92;50.19;100741.19;5072106;28;20055;-68
2021/08/04 08:53:26;;;;;;;7.22;3.90;;;;;;;20.94;49.33;100735.97;5055339;28;20036;-68
2021/08/04 08:55:53;;;;;;;10.90;4.00;;;;;;;20.88;49.04;100732.75;5074354;28;20052;-71
2021/08/04 08:58:21;;;;;;;6.10;3.53;;;;;;;21.35;47.87;100734.88;5055435;28;20044;-70
2021/08/04 09:00:48;;;;;;;6.07;3.67;;;;;;;21.24;47.48;100733.94;5070881;28;20056;-69
2021/08/04 09:03:18;;;;;;;7.43;3.70;;;;;;;21.36;47.56;100733.69;5072388;28;20055;-69
2021/08/04 09:05:51;;;;;;;9.07;5.60;;;;;;;21.46;47.73;100733.00;5055687;28;20067;-70
2021/08/04 09:08:27;;;;;;;10.27;4.22;;;;;;;21.66;47.13;100733.53;5074380;28;20508;-70
2021/08/04 09:10:56;;;;;;;9.48;3.53;;;;;;;21.71;46.94;100736.00;5073783;28;20063;-70
2021/08/04 09:13:31;;;;;;;8.13;3.55;;;;;;;21.38;47.12;100736.09;5073707;28;20056;-69
2021/08/04 09:16:19;;;;;;;7.32;3.40;;;;;;;21.55;46.83;100738.28;5073444;28;20051;-70
2021/08/04 09:18:53;;;;;;;7.80;3.72;;;;;;;21.44;47.54;100734.56;5072774;28;20087;-71
2021/08/04 09:21:21;;;;;;;9.55;3.83;;;;;;;21.48;47.11;100739.00;5073327;28;20059;-70
2021/08/04 09:23:53;;;;;;;10.18;4.00;;;;;;;21.50;46.65;100733.81;5055733;28;20047;-69
2021/08/04 09:26:25;;;;;;;7.15;3.65;;;;;;;21.55;46.40;100729.88;5074398;28;20053;-69
2021/08/04 09:29:05;;;;;;;11.90;4.70;;;;;;;21.70;46.62;100725.97;5074108;28;20055;-70
2021/08/04 09:31:43;;;;;;;7.70;3.60;;;;;;;21.80;46.08;100731.72;5056478;28;20048;-70
2021/08/04 09:34:40;;;;;;;9.07;4.15;;;;;;;21.75;46.40;100722.81;5044427;28;20057;-71
2021/08/04 09:37:11;;;;;;;6.40;3.67;;;;;;;22.01;45.82;100714.22;5074122;28;20037;-70
2021/08/04 09:39:40;;;;;;;8.35;4.15;;;;;;;21.73;46.38;100714.78;5072007;28;20060;-70
2021/08/04 09:42:08;;;;;;;11.30;3.70;;;;;;;22.11;45.69;100710.69;5073010;28;20071;-70
2021/08/04 09:44:57;;;;;;;13.77;3.72;;;;;;;22.33;45.05;100706.81;5071482;28;20048;-70
2021/08/04 09:47:25;;;;;;;6.90;3.05;;;;;;;22.35;43.67;100698.81;5049722;28;20542;-69
2021/08/04 09:49:56;;;;;;;7.53;3.40;;;;;;;22.37;43.82;100690.00;5084239;28;20051;-70
2021/08/04 09:52:24;;;;;;;5.25;3.13;;;;;;;22.34;44.19;100703.63;5072498;28;20067;-69
2021/08/04 09:54:54;;;;;;;9.35;3.42;;;;;;;22.17;43.82;100701.53;5070653;28;20063;-69
2021/08/04 09:57:41;;;;;;;8.90;3.80;;;;;;;21.52;44.76;100702.59;5055370;28;20048;-71
2021/08/04 10:00:11;;;;;;;6.97;3.70;;;;;;;21.99;45.52;100708.19;5072690;28;20410;-70
2021/08/04 10:02:38;;;;;;;7.73;4.07;;;;;;;22.14;44.85;100704.31;5072782;28;20411;-69
2021/08/04 10:05:21;;;;;;;8.30;4.45;;;;;;;22.25;44.04;100696.72;5078408;28;20060;-67
2021/08/04 10:08:11;;;;;;;8.48;3.85;;;;;;;22.43;43.33;100703.25;5092983;28;20052;-69
2021/08/04 10:10:42;;;;;;;;;;;;;;;22.32;44.29;100697.59;5093227;28;20513;-67
2021/08/04 10:13:17;;;;;;;8.52;3.50;;;;;;;22.32;44.22;100689.16;5092853;28;19920;-68
2021/08/04 10:15:51;;;;;;;8.70;4.13;;;;;;;22.02;44.96;100696.22;5092564;28;20050;-68
2021/08/04 10:18:23;;;;;;;6.88;3.40;;;;;;;21.87;45.74;100686.06;5093420;28;20043;-68
2021/08/04 10:20:54;;;;;;;8.05;4.10;;;;;;;21.79;44.67;100681.63;5091658;28;20063;-69
2021/08/04 10:23:24;;;;;;;10.52;3.80;;;;;;;22.00;45.38;100679.75;5093047;28;20040;-66
2021/08/04 10:25:52;;;;;;;9.65;4.05;;;;;;;22.53;44.49;100682.84;5075704;28;20056;-68
2021/08/04 10:28:20;;;;;;;7.32;3.80;;;;;;;22.24;44.79;100683.91;5091111;28;20055;-70
2021/08/04 10:30:48;;;;;;;6.90;3.47;;;;;;;22.45;44.92;100675.59;5056735;28;20075;-69
2021/08/04 10:33:16;;;;;;;10.27;3.65;;;;;;;22.43;43.54;100675.19;5073656;28;20123;-68
2021/08/04 10:35:46;;;;;;;6.65;3.78;;;;;;;22.38;44.96;100677.56;5090180;28;20063;-67
2021/08/04 10:38:19;;;;;;;6.47;4.03;;;;;;;22.14;44.28;100670.63;5090734;28;20059;-68
2021/08/04 10:41:09;;;;;;;8.52;4.07;;;;;;;21.94;45.14;100678.53;5093084;28;20059;-67
2021/08/04 10:43:52;;;;;;;6.72;3.55;;;;;;;22.09;44.39;100670.97;5091908;28;20044;-68
2021/08/04 10:49:05;;;;;;;8.18;3.92;;;;;;;21.91;44.75;100679.31;5091772;28;20056;-68
2021/08/04 10:51:43;;;;;;;6.32;3.38;;;;;;;21.62;45.48;100673.84;5092171;28;20052;-69
2021/08/04 10:54:15;;;;;;;7.30;4.15;;;;;;;21.77;45.00;100682.00;5093607;28;20605;-68
2021/08/04 10:56:42;;;;;;;13.18;9.02;;;;;;;21.97;45.29;100685.34;5096656;28;20066;-68
2021/08/04 10:59:09;;;;;;;10.63;6.28;;;;;;;22.25;46.02;100686.31;5094560;28;20055;-69
2021/08/04 11:01:49;;;;;;;9.02;4.53;;;;;;;22.19;46.82;100685.06;5075773;28;20052;-69
2021/08/04 11:04:28;;;;;;;10.85;4.70;;;;;;;22.19;47.10;100684.28;5094892;28;20048;-69
2021/08/04 11:07:07;;;;;;;7.30;4.70;;;;;;;22.25;47.01;100682.69;5075010;28;20044;-68
2021/08/04 11:09:45;;;;;;;10.63;5.15;;;;;;;22.20;47.93;100683.91;5095077;28;20044;-68
2021/08/04 11:12:27;;;;;;;8.77;4.30;;;;;;;22.29;47.49;100684.34;5043125;28;20043;-69
2021/08/04 11:14:56;;;;;;;8.68;4.40;;;;;;;22.33;47.19;100673.94;5096687;28;20051;-69
2021/08/04 11:17:31;;;;;;;6.50;4.25;;;;;;;22.62;46.63;100676.88;5094939;28;20051;-68
2021/08/04 11:20:06;;;;;;;6.55;3.70;;;;;;;22.58;45.67;100684.50;5082069;28;20055;-68
2021/08/04 11:22:39;;;;;;;10.07;3.78;;;;;;;22.42;46.67;100684.78;5078103;28;20044;-70
2021/08/04 11:25:24;;;;;;;7.13;3.95;;;;;;;22.41;46.54;100688.81;5078531;28;20702;-68
2021/08/04 11:27:51;;;;;;;9.40;3.65;;;;;;;22.55;45.93;100680.47;5088523;28;20063;-69
2021/08/04 11:30:30;;;;;;;7.65;3.72;;;;;;;22.36;45.79;100680.75;5077191;28;20509;-69
2021/08/04 11:33:21;;;;;;;6.07;3.55;;;;;;;22.22;45.37;100678.69;5095254;28;20048;-69
2021/08/04 11:36:08;;;;;;;12.30;6.20;;;;;;;21.99;46.10;100678.16;5094945;28;20067;-68